Colebrook, Connecticut
Current Conditions -  °F | °C
As of 7:51 AM on Sunday 23 Nov 2014 (Local Time) from KBDL Reporting Station
Broken Clouds Broken Clouds  
Wind Chill:   Ceiling: 9500
Heat Index:   Visibility: 10mi
Dew Point: -6°   Wind: 8mph
Humidity: 42%   Direction: 170°S
Pressure: 30.14"   Gusts: NA
Location:  41.99°N, 73.1°W
Report Text: KBDL 231251Z 17007KT 10SM FEW036 BKN095 BKN110 07/M06 A3014 RMK AO2 RAB04E32 SLP206 P0000 T00671056
Loading
Personal Weather Stations






























Interactive Weather Map New forecast layout! Learn more

10-Day Weather Forecast

Advertisements
Track Severe Weather on mobile